Time;durP1;ratioP1;P1;durP2;ratioP2;P2;SDS_P1;SDS_P2;PMS_P1;PMS_P2;Temp;Humidity;BMP_temperature;BMP_pressure;BME280_temperature;BME280_humidity;BME280_pressure;Samples;Min_cycle;Max_cycle;Signal;HPM_P1;HPM_P2
2022/03/25 00:00:46;;;;;;;24.60;17.43;;;6.30;96.50;;;;;;5013246;28;20190;-85
2022/03/25 00:03:12;;;;;;;26.30;17.87;;;6.20;97.10;;;;;;5013739;28;20286;-85
2022/03/25 00:05:38;;;;;;;27.33;18.60;;;6.20;97.20;;;;;;5013889;28;20190;-85
2022/03/25 00:08:05;;;;;;;34.47;17.90;;;6.20;97.00;;;;;;5001863;28;20683;-85
2022/03/25 00:10:31;;;;;;;27.70;17.03;;;6.20;97.30;;;;;;5009979;28;20226;-85
2022/03/25 00:12:56;;;;;;;28.87;18.03;;;6.20;97.00;;;;;;5010025;28;20204;-85
2022/03/25 00:15:22;;;;;;;29.40;18.73;;;6.10;96.80;;;;;;5010559;28;20183;-85
2022/03/25 00:17:48;;;;;;;30.30;18.23;;;6.10;96.90;;;;;;5026919;28;20218;-85
2022/03/25 00:20:14;;;;;;;25.53;17.57;;;6.10;97.00;;;;;;5010240;28;20184;-85
2022/03/25 00:22:41;;;;;;;28.27;16.43;;;6.00;97.10;;;;;;5010007;28;20257;-85
2022/03/25 00:25:09;;;;;;;25.00;16.07;;;5.90;98.10;;;;;;5026707;28;20183;-85
2022/03/25 00:27:35;;;;;;;24.80;15.93;;;6.00;98.30;;;;;;5009990;28;20208;-85
2022/03/25 00:30:04;;;;;;;24.90;16.60;;;6.00;98.20;;;;;;5010126;28;20179;-85
2022/03/25 00:32:30;;;;;;;22.23;14.93;;;5.90;98.50;;;;;;5010094;28;20199;-85
2022/03/25 00:34:56;;;;;;;24.70;15.23;;;5.80;98.30;;;;;;4993710;28;20230;-85
2022/03/25 00:37:23;;;;;;;23.23;14.63;;;5.80;98.70;;;;;;5013041;28;20209;-85
2022/03/25 00:39:50;;;;;;;21.10;14.07;;;5.80;99.00;;;;;;5026240;28;20554;-85
2022/03/25 00:42:16;;;;;;;20.77;14.60;;;5.70;99.00;;;;;;4993386;28;20207;-85
2022/03/25 00:44:42;;;;;;;22.80;14.63;;;5.70;99.00;;;;;;4993578;28;20192;-85
2022/03/25 00:47:09;;;;;;;23.40;14.77;;;5.60;99.30;;;;;;4993330;28;20210;-85
2022/03/25 00:49:38;;;;;;;24.37;15.27;;;5.60;99.30;;;;;;5026004;28;20202;-85
2022/03/25 00:52:05;;;;;;;25.47;15.27;;;5.60;99.40;;;;;;5026379;28;20202;-85
2022/03/25 00:54:31;;;;;;;25.70;15.33;;;5.60;99.30;;;;;;5009684;28;20183;-85
2022/03/25 00:56:57;;;;;;;24.07;15.27;;;5.60;99.50;;;;;;5025767;28;20191;-85
2022/03/25 00:59:23;;;;;;;21.97;14.37;;;5.60;99.50;;;;;;5025961;28;20214;-85
2022/03/25 01:01:49;;;;;;;23.40;15.40;;;5.60;99.40;;;;;;5026012;28;20576;-85
2022/03/25 01:04:16;;;;;;;22.17;14.53;;;5.50;99.50;;;;;;5026317;28;20187;-85
2022/03/25 01:06:43;;;;;;;22.37;15.00;;;5.50;99.60;;;;;;5026827;28;20203;-85
2022/03/25 01:09:09;;;;;;;23.80;15.53;;;5.50;99.70;;;;;;5012903;28;20178;-85
2022/03/25 01:11:35;;;;;;;22.37;14.70;;;5.60;99.60;;;;;;5013252;28;20286;-85
2022/03/25 01:14:02;;;;;;;25.43;16.20;;;5.60;99.60;;;;;;5016143;28;20217;-85
2022/03/25 01:16:28;;;;;;;24.90;15.57;;;5.50;99.70;;;;;;5017230;28;20228;-85
2022/03/25 01:18:54;;;;;;;24.53;14.90;;;5.50;99.90;;;;;;5016973;28;20183;-85
2022/03/25 01:21:20;;;;;;;26.10;15.73;;;5.60;99.90;;;;;;5017242;28;20270;-85
2022/03/25 01:23:48;;;;;;;23.07;15.37;;;5.70;99.80;;;;;;5015924;28;20255;-85
2022/03/25 01:26:14;;;;;;;24.43;15.83;;;5.70;99.70;;;;;;5016864;28;20262;-85
2022/03/25 01:28:41;;;;;;;26.13;15.90;;;5.70;99.90;;;;;;5016395;28;20666;-85
2022/03/25 01:31:09;;;;;;;22.03;15.13;;;5.70;99.70;;;;;;5016759;28;20186;-85
2022/03/25 01:33:37;;;;;;;28.70;15.70;;;5.60;99.60;;;;;;5016688;28;20651;-85
2022/03/25 01:36:04;;;;;;;20.87;14.47;;;5.60;99.90;;;;;;5032908;28;20182;-85
2022/03/25 01:38:30;;;;;;;24.27;15.23;;;5.60;99.70;;;;;;5016455;28;20194;-85
2022/03/25 01:40:59;;;;;;;23.37;15.50;;;5.60;99.90;;;;;;5016920;28;20183;-84
2022/03/25 01:43:24;;;;;;;23.00;15.83;;;5.60;99.80;;;;;;5016889;28;20194;-84
2022/03/25 01:45:50;;;;;;;22.40;15.10;;;5.50;99.90;;;;;;5033274;28;20178;-85
2022/03/25 01:48:17;;;;;;;25.03;15.73;;;5.40;99.90;;;;;;5016684;28;20268;-85
2022/03/25 01:50:44;;;;;;;22.83;15.57;;;5.30;99.80;;;;;;5017166;28;20178;-85
2022/03/25 01:53:17;;;;;;;26.50;15.43;;;5.20;99.90;;;;;;5017161;28;20230;-85
2022/03/25 01:56:01;;;;;;;23.47;14.67;;;5.20;99.90;;;;;;5017763;28;20182;-84
2022/03/25 01:58:31;;;;;;;20.40;14.53;;;5.20;99.90;;;;;;5017503;28;20171;-84
2022/03/25 02:00:58;;;;;;;23.47;14.87;;;5.10;99.90;;;;;;5017025;28;20190;-85
2022/03/25 02:03:25;;;;;;;23.20;15.50;;;5.10;99.90;;;;;;5015978;28;20186;-85
2022/03/25 02:05:51;;;;;;;24.33;15.07;;;5.10;99.90;;;;;;5016379;28;20192;-85
2022/03/25 02:08:20;;;;;;;23.07;14.70;;;5.00;99.90;;;;;;5032459;28;20314;-85
2022/03/25 02:10:47;;;;;;;22.10;14.40;;;5.00;99.90;;;;;;5016063;28;20183;-85
2022/03/25 02:13:14;;;;;;;24.53;15.87;;;4.90;99.90;;;;;;5032497;28;20191;-85
2022/03/25 02:15:47;;;;;;;24.33;15.47;;;4.90;99.90;;;;;;5016755;28;20198;-85
2022/03/25 02:18:15;;;;;;;26.70;15.67;;;4.80;99.90;;;;;;5016246;28;20189;-84
2022/03/25 02:20:42;;;;;;;22.37;15.60;;;4.60;99.90;;;;;;5015970;28;20186;-84
2022/03/25 02:23:11;;;;;;;24.80;16.53;;;4.40;99.90;;;;;;5016057;28;20198;-85
2022/03/25 02:25:38;;;;;;;23.73;15.50;;;4.20;99.90;;;;;;5014710;28;20658;-85
2022/03/25 02:28:08;;;;;;;24.70;16.27;;;4.20;99.90;;;;;;5016244;28;20206;-85
2022/03/25 02:30:38;;;;;;;23.97;15.93;;;4.20;99.90;;;;;;5015717;28;20179;-85
2022/03/25 02:33:07;;;;;;;26.67;16.53;;;4.10;99.90;;;;;;5015301;28;20195;-85
2022/03/25 02:35:42;;;;;;;22.10;15.30;;;4.10;99.90;;;;;;5015485;28;20660;-85
2022/03/25 02:38:09;;;;;;;24.90;16.40;;;4.10;99.90;;;;;;5032116;28;20308;-85
2022/03/25 02:40:36;;;;;;;23.20;15.07;;;4.20;99.90;;;;;;5031823;28;20651;-85
2022/03/25 02:43:02;;;;;;;23.70;15.13;;;4.20;99.90;;;;;;5015016;28;20202;-84
2022/03/25 02:45:28;;;;;;;22.47;15.70;;;4.20;99.90;;;;;;5015363;28;20254;-85
2022/03/25 02:47:54;;;;;;;26.77;16.37;;;4.20;99.90;;;;;;5015106;28;20305;-85
2022/03/25 02:50:21;;;;;;;25.57;14.80;;;4.20;99.90;;;;;;5014867;28;20190;-85
2022/03/25 02:52:47;;;;;;;22.10;14.70;;;4.20;99.90;;;;;;5031784;28;20241;-85
2022/03/25 02:55:13;;;;;;;25.23;15.50;;;4.10;99.90;;;;;;5015244;28;20178;-85
2022/03/25 02:57:39;;;;;;;28.33;16.17;;;4.10;99.90;;;;;;5015042;28;20181;-84
2022/03/25 03:00:09;;;;;;;23.90;15.43;;;4.00;99.90;;;;;;5014857;28;20714;-85
2022/03/25 03:02:36;;;;;;;27.93;16.00;;;4.00;99.90;;;;;;5031414;28;20268;-85
2022/03/25 03:05:03;;;;;;;26.40;15.73;;;4.00;99.90;;;;;;5015033;28;20273;-85
2022/03/25 03:07:29;;;;;;;26.43;16.23;;;4.00;99.90;;;;;;5031620;28;20209;-84
2022/03/25 03:09:55;;;;;;;25.93;15.90;;;4.00;99.90;;;;;;5014919;28;20175;-85
2022/03/25 03:12:24;;;;;;;29.53;17.50;;;3.90;99.90;;;;;;5015098;28;20208;-85
2022/03/25 03:14:50;;;;;;;28.80;17.53;;;3.90;99.90;;;;;;5014895;28;20193;-85
2022/03/25 03:17:16;;;;;;;28.07;16.07;;;3.90;99.90;;;;;;5031210;28;20190;-85
2022/03/25 03:19:42;;;;;;;26.70;15.83;;;3.80;99.90;;;;;;5014482;28;20205;-85
2022/03/25 03:22:08;;;;;;;23.10;14.77;;;3.80;99.90;;;;;;5014508;28;20206;-85
2022/03/25 03:24:34;;;;;;;24.00;14.97;;;3.70;99.90;;;;;;5030992;28;20235;-85
2022/03/25 03:26:59;;;;;;;23.73;14.50;;;3.70;99.90;;;;;;5014561;28;20214;-85
2022/03/25 03:29:25;;;;;;;22.97;14.97;;;3.80;99.90;;;;;;5014300;28;20197;-85
2022/03/25 03:31:51;;;;;;;26.97;16.60;;;3.80;99.90;;;;;;5014354;28;20198;-85
2022/03/25 03:34:34;;;;;;;23.73;14.77;;;3.80;99.90;;;;;;5129246;27;20282;-85
2022/03/25 03:37:00;;;;;;;25.87;16.37;;;3.80;99.90;;;;;;5111131;28;20187;-85
2022/03/25 03:39:26;;;;;;;23.10;15.27;;;3.80;99.90;;;;;;5127950;28;20183;-85
2022/03/25 03:41:52;;;;;;;23.43;14.70;;;3.80;99.90;;;;;;5119306;28;20203;-85
2022/03/25 03:44:18;;;;;;;22.90;15.17;;;3.70;99.90;;;;;;5107090;28;20274;-85
2022/03/25 03:46:44;;;;;;;21.50;14.63;;;3.70;99.90;;;;;;5107278;28;20180;-85
2022/03/25 03:49:10;;;;;;;23.53;15.17;;;3.60;99.90;;;;;;5106930;28;20176;-85
2022/03/25 03:51:36;;;;;;;21.60;15.23;;;3.60;99.90;;;;;;5123701;27;20203;-85
2022/03/25 03:54:05;;;;;;;22.37;14.17;;;3.60;99.90;;;;;;5106901;28;20217;-85
2022/03/25 03:56:31;;;;;;;24.13;14.93;;;3.50;99.90;;;;;;5106914;28;20196;-85
2022/03/25 03:58:56;;;;;;;23.20;15.07;;;3.50;99.90;;;;;;5106682;28;20183;-85
2022/03/25 04:01:23;;;;;;;29.10;15.80;;;3.50;99.90;;;;;;5106815;28;20191;-85
2022/03/25 04:03:49;;;;;;;25.03;15.13;;;3.40;99.90;;;;;;5107012;28;20259;-85
2022/03/25 04:06:14;;;;;;;20.97;14.17;;;3.30;99.90;;;;;;5106463;28;20621;-85
2022/03/25 04:08:40;;;;;;;26.10;16.07;;;3.30;99.90;;;;;;5106926;28;20198;-85
2022/03/25 04:11:07;;;;;;;26.00;15.47;;;3.30;99.90;;;;;;5106567;28;20316;-85
2022/03/25 04:13:33;;;;;;;23.20;14.90;;;3.30;99.90;;;;;;5106706;28;20225;-85
2022/03/25 04:15:58;;;;;;;25.63;15.17;;;3.40;99.90;;;;;;5106723;28;20182;-85
2022/03/25 04:18:24;;;;;;;23.33;15.53;;;3.40;99.90;;;;;;5106728;28;20191;-85
2022/03/25 04:20:51;;;;;;;23.97;14.70;;;3.20;99.90;;;;;;5106195;28;20179;-85
2022/03/25 04:23:17;;;;;;;23.03;15.17;;;3.00;99.90;;;;;;5106447;28;20210;-85
2022/03/25 04:25:43;;;;;;;26.97;14.87;;;2.80;99.90;;;;;;5123406;28;20221;-85
2022/03/25 04:28:09;;;;;;;27.57;15.37;;;2.60;99.90;;;;;;5106514;28;20175;-85
2022/03/25 04:30:37;;;;;;;26.60;15.10;;;2.40;99.90;;;;;;5106417;28;20190;-85
2022/03/25 04:33:04;;;;;;;25.70;15.40;;;2.30;99.90;;;;;;5106157;28;20677;-85
2022/03/25 04:35:30;;;;;;;25.10;15.67;;;2.30;99.90;;;;;;5106690;28;20174;-86
2022/03/25 04:37:57;;;;;;;24.10;15.43;;;2.30;99.90;;;;;;5108571;28;20207;-86
2022/03/25 04:40:27;;;;;;;25.17;16.03;;;2.40;99.90;;;;;;5074760;28;20402;-86
2022/03/25 04:42:55;;;;;;;25.27;15.67;;;2.40;99.90;;;;;;5106944;28;20254;-86
2022/03/25 04:45:23;;;;;;;25.17;15.63;;;2.40;99.90;;;;;;5095270;28;20175;-86
2022/03/25 04:47:49;;;;;;;26.50;16.40;;;2.40;99.90;;;;;;5092302;28;20174;-86
2022/03/25 04:50:15;;;;;;;25.53;15.37;;;2.40;99.90;;;;;;5092415;28;20184;-86
2022/03/25 04:52:41;;;;;;;26.83;15.63;;;2.50;99.90;;;;;;5092135;28;20214;-86
2022/03/25 04:55:08;;;;;;;28.80;16.43;;;2.60;99.90;;;;;;5092135;28;20199;-86
2022/03/25 04:57:34;;;;;;;29.10;16.50;;;2.60;99.90;;;;;;5092571;28;20190;-86
2022/03/25 05:00:00;;;;;;;25.70;15.87;;;2.70;99.90;;;;;;5092476;28;20169;-86
2022/03/25 05:02:26;;;;;;;28.00;16.77;;;2.80;99.90;;;;;;5091180;28;20234;-86
2022/03/25 05:04:55;;;;;;;26.47;15.93;;;2.90;99.90;;;;;;5078918;28;20207;-85
2022/03/25 05:07:23;;;;;;;22.80;15.27;;;2.90;99.90;;;;;;5094630;28;20292;-85
2022/03/25 05:09:50;;;;;;;25.13;15.97;;;2.90;99.90;;;;;;5077524;28;20275;-86
2022/03/25 05:12:15;;;;;;;26.53;16.70;;;2.80;99.90;;;;;;5077520;28;20204;-86
2022/03/25 05:14:41;;;;;;;23.87;16.20;;;2.80;99.90;;;;;;5077511;28;20183;-85
2022/03/25 05:17:07;;;;;;;27.53;17.50;;;2.80;99.90;;;;;;5077792;28;20175;-86
2022/03/25 05:19:33;;;;;;;27.17;17.53;;;2.80;99.90;;;;;;5060494;28;20180;-86
2022/03/25 05:22:00;;;;;;;25.00;15.90;;;2.80;99.90;;;;;;5077202;28;20603;-85
2022/03/25 05:24:26;;;;;;;26.47;16.57;;;2.60;99.90;;;;;;5077292;28;20261;-86
2022/03/25 05:26:53;;;;;;;24.30;16.30;;;2.50;99.90;;;;;;5060730;28;20636;-85
2022/03/25 05:29:19;;;;;;;26.93;16.70;;;2.50;99.90;;;;;;5076022;28;20179;-86
2022/03/25 05:31:45;;;;;;;27.07;16.20;;;2.50;99.90;;;;;;5076079;28;20197;-86
2022/03/25 05:34:11;;;;;;;27.17;15.87;;;2.50;99.90;;;;;;5076399;28;20210;-85
2022/03/25 05:36:37;;;;;;;27.60;16.73;;;2.50;99.90;;;;;;5075189;28;20187;-86
2022/03/25 05:39:04;;;;;;;26.53;16.47;;;2.50;99.90;;;;;;5040266;28;20188;-86
2022/03/25 05:41:30;;;;;;;30.53;17.53;;;2.60;99.90;;;;;;5073613;28;20209;-86
2022/03/25 05:43:56;;;;;;;30.10;18.43;;;2.60;99.90;;;;;;5073526;28;20185;-85
2022/03/25 05:46:22;;;;;;;28.20;17.17;;;2.60;99.90;;;;;;5073501;28;20277;-85
2022/03/25 05:48:48;;;;;;;31.67;19.93;;;2.50;99.90;;;;;;5073710;28;20265;-85
2022/03/25 05:51:14;;;;;;;33.80;18.10;;;2.50;99.90;;;;;;5089510;28;20671;-86
2022/03/25 05:53:41;;;;;;;28.30;17.93;;;2.40;99.90;;;;;;5075271;28;20562;-86
2022/03/25 05:56:08;;;;;;;27.77;17.27;;;2.40;99.90;;;;;;5074072;28;20193;-85
2022/03/25 05:58:38;;;;;;;27.63;16.73;;;2.30;99.90;;;;;;5089209;28;20175;-86
2022/03/25 06:01:09;;;;;;;31.83;17.33;;;2.40;99.90;;;;;;5074683;28;20210;-86
2022/03/25 06:03:35;;;;;;;26.77;16.53;;;2.50;99.90;;;;;;5073555;28;20179;-86
2022/03/25 06:06:04;;;;;;;27.73;17.07;;;2.60;99.90;;;;;;5090186;28;20190;-86
2022/03/25 06:08:31;;;;;;;31.07;18.30;;;2.70;99.90;;;;;;5090183;28;20181;-86
2022/03/25 06:10:58;;;;;;;27.73;17.20;;;2.80;99.90;;;;;;5090121;28;20186;-86
2022/03/25 06:13:34;;;;;;;;;;;;;;;;;;;;;
2022/03/25 06:16:04;;;;;;;28.07;16.37;;;3.00;99.90;;;;;;5056157;28;20690;-86
2022/03/25 06:18:30;;;;;;;30.03;16.47;;;3.10;99.90;;;;;;5087353;28;20173;-86
2022/03/25 06:20:56;;;;;;;30.67;16.80;;;3.20;99.90;;;;;;5070047;28;20180;-86
2022/03/25 06:23:22;;;;;;;27.53;17.03;;;3.30;99.90;;;;;;5053776;28;20180;-86
2022/03/25 06:25:47;;;;;;;30.23;16.57;;;3.40;99.90;;;;;;5087516;28;20593;-86
2022/03/25 06:28:13;;;;;;;27.03;17.17;;;3.40;99.90;;;;;;5087299;28;20222;-86
2022/03/25 06:30:39;;;;;;;26.17;16.90;;;3.50;99.90;;;;;;5087184;28;20188;-85
2022/03/25 06:33:07;;;;;;;27.60;17.03;;;3.60;99.90;;;;;;5087100;28;20220;-77
2022/03/25 06:35:34;;;;;;;28.33;17.27;;;3.70;99.90;;;;;;5088208;28;20233;-85
2022/03/25 06:38:00;;;;;;;29.97;16.73;;;3.80;99.90;;;;;;5082556;28;20701;-85
2022/03/25 06:40:26;;;;;;;32.90;18.73;;;3.90;99.90;;;;;;5090260;28;20188;-85
2022/03/25 06:42:54;;;;;;;31.53;19.20;;;4.00;99.90;;;;;;5090258;28;20240;-85
2022/03/25 06:45:20;;;;;;;30.53;18.30;;;4.10;99.90;;;;;;5090221;28;20656;-86
2022/03/25 06:47:47;;;;;;;29.67;17.87;;;4.20;99.90;;;;;;5090442;28;20200;-86
2022/03/25 06:50:15;;;;;;;26.67;17.30;;;4.30;99.90;;;;;;5056604;28;20212;-86
2022/03/25 06:52:42;;;;;;;26.60;16.53;;;4.40;99.90;;;;;;5057449;28;20574;-86
2022/03/25 06:55:08;;;;;;;28.07;18.57;;;4.50;99.90;;;;;;5058934;28;20176;-86
2022/03/25 06:57:35;;;;;;;28.03;17.17;;;4.50;99.90;;;;;;5092778;28;20181;-86
2022/03/25 07:00:03;;;;;;;29.83;18.67;;;4.50;99.90;;;;;;5092997;28;20181;-85
2022/03/25 07:02:30;;;;;;;29.53;17.57;;;4.60;99.90;;;;;;5091475;28;20200;-85
2022/03/25 07:04:55;;;;;;;28.27;16.33;;;4.70;99.90;;;;;;5073691;28;20264;-85
2022/03/25 07:07:26;;;;;;;29.07;17.83;;;4.90;99.90;;;;;;5090603;28;20271;-85
2022/03/25 07:09:55;;;;;;;26.50;17.87;;;5.00;99.90;;;;;;5073607;28;20287;-85
2022/03/25 07:12:21;;;;;;;28.33;18.30;;;5.10;99.90;;;;;;5073073;28;20345;-85
2022/03/25 07:14:47;;;;;;;25.93;17.33;;;5.30;99.90;;;;;;5073253;28;20181;-85
2022/03/25 07:17:13;;;;;;;28.07;17.67;;;5.50;99.90;;;;;;5073339;28;20218;-85
2022/03/25 07:19:39;;;;;;;27.07;17.73;;;5.60;99.90;;;;;;5073216;28;20173;-85
2022/03/25 07:22:04;;;;;;;29.53;17.93;;;5.80;99.90;;;;;;5072610;28;20208;-85
2022/03/25 07:24:30;;;;;;;28.77;17.40;;;5.90;99.90;;;;;;5072711;28;20274;-85
2022/03/25 07:26:56;;;;;;;26.23;17.07;;;6.00;99.90;;;;;;5072972;28;20184;-85
2022/03/25 07:29:22;;;;;;;29.07;18.30;;;6.10;99.90;;;;;;5072785;28;20234;-85
2022/03/25 07:31:48;;;;;;;30.53;17.23;;;6.30;99.90;;;;;;5072788;28;20691;-85
2022/03/25 07:34:14;;;;;;;27.70;17.53;;;6.40;99.90;;;;;;5072775;28;20233;-85
2022/03/25 07:36:40;;;;;;;27.27;16.80;;;6.50;99.90;;;;;;5072685;28;20181;-85
2022/03/25 07:39:06;;;;;;;26.77;18.70;;;6.60;99.90;;;;;;5056037;28;20239;-85
2022/03/25 07:41:32;;;;;;;25.67;17.00;;;6.60;99.90;;;;;;5055814;28;20196;-85
2022/03/25 07:43:58;;;;;;;28.27;17.53;;;6.70;99.90;;;;;;5073006;28;20184;-85
2022/03/25 07:46:23;;;;;;;26.20;16.53;;;6.90;99.90;;;;;;5056530;28;20637;-85
2022/03/25 07:48:51;;;;;;;29.87;18.70;;;7.00;99.90;;;;;;5072373;28;20184;-85
2022/03/25 07:51:17;;;;;;;27.57;17.93;;;7.10;99.90;;;;;;5055705;28;20213;-85
2022/03/25 07:53:43;;;;;;;29.00;16.77;;;7.30;99.90;;;;;;5072450;28;20304;-86
2022/03/25 07:56:10;;;;;;;26.33;17.37;;;7.40;99.90;;;;;;5072565;28;20171;-85
2022/03/25 07:58:36;;;;;;;26.20;17.77;;;7.50;99.90;;;;;;5055607;28;20183;-85
2022/03/25 08:01:03;;;;;;;29.87;18.13;;;7.50;99.90;;;;;;5055514;28;20186;-85
2022/03/25 08:03:30;;;;;;;28.83;17.70;;;7.60;99.90;;;;;;5056059;28;20180;-85
2022/03/25 08:05:56;;;;;;;26.63;18.07;;;7.80;99.90;;;;;;5072181;28;20177;-85
2022/03/25 08:08:23;;;;;;;25.30;16.97;;;7.80;99.90;;;;;;5056070;28;20195;-85
2022/03/25 08:10:55;;;;;;;28.23;17.93;;;8.10;99.90;;;;;;5091859;28;20195;-86
2022/03/25 08:13:22;;;;;;;31.80;18.97;;;8.30;99.90;;;;;;5085063;28;20306;-85
2022/03/25 08:15:48;;;;;;;25.77;16.90;;;8.40;99.90;;;;;;5072655;28;20180;-86
2022/03/25 08:18:16;;;;;;;27.43;16.97;;;8.50;99.90;;;;;;5072725;28;20205;-85
2022/03/25 08:20:47;;;;;;;27.00;17.70;;;8.70;99.90;;;;;;5074833;28;20214;-85
2022/03/25 08:28:48;;;;;;;28.57;16.90;;;9.10;99.90;;;;;;5076061;28;20589;-85
2022/03/25 08:31:15;;;;;;;26.73;17.87;;;9.30;99.90;;;;;;5076039;28;20187;-86
2022/03/25 08:33:42;;;;;;;24.67;17.33;;;9.50;99.90;;;;;;5075513;28;20208;-86
2022/03/25 08:36:07;;;;;;;27.20;18.07;;;9.70;99.90;;;;;;5075755;28;20185;-86
2022/03/25 08:38:34;;;;;;;27.13;17.50;;;9.90;99.90;;;;;;5076038;28;20192;-86
2022/03/25 08:41:00;;;;;;;23.53;16.83;;;10.20;99.90;;;;;;5059194;28;20200;-85
2022/03/25 08:43:26;;;;;;;26.80;18.37;;;10.40;99.90;;;;;;5059166;28;20192;-85
2022/03/25 08:45:52;;;;;;;26.77;18.97;;;10.50;99.90;;;;;;5094355;28;20177;-85
2022/03/25 08:48:18;;;;;;;28.13;18.27;;;10.70;99.90;;;;;;5075510;28;20268;-85
2022/03/25 08:50:44;;;;;;;31.87;19.23;;;10.90;99.90;;;;;;5058871;28;20271;-85
2022/03/25 08:53:10;;;;;;;26.30;18.13;;;11.00;99.90;;;;;;5059410;28;20321;-85
2022/03/25 08:55:36;;;;;;;30.80;19.60;;;11.20;99.90;;;;;;5059908;28;20377;-85
2022/03/25 08:58:03;;;;;;;29.57;18.43;;;11.30;99.80;;;;;;5059584;28;20177;-85
2022/03/25 09:00:29;;;;;;;24.30;17.77;;;11.40;99.90;;;;;;5060133;28;20175;-85
2022/03/25 09:02:55;;;;;;;28.80;18.87;;;11.60;99.90;;;;;;5059980;28;20203;-86
2022/03/25 09:05:21;;;;;;;30.10;18.70;;;11.70;99.90;;;;;;5076261;28;20185;-85
2022/03/25 09:07:47;;;;;;;26.90;18.57;;;11.80;99.90;;;;;;5059734;28;20197;-86
2022/03/25 09:10:14;;;;;;;28.90;18.93;;;11.90;99.50;;;;;;5092452;28;20181;-86
2022/03/25 09:12:42;;;;;;;26.37;18.27;;;11.80;99.50;;;;;;5092748;28;20292;-85
2022/03/25 09:15:09;;;;;;;27.30;19.83;;;11.80;99.80;;;;;;5092281;28;20216;-86
2022/03/25 09:17:35;;;;;;;28.43;19.30;;;11.90;99.60;;;;;;5092085;28;20189;-86
2022/03/25 09:20:04;;;;;;;26.87;19.63;;;12.00;99.90;;;;;;5091720;28;20169;-86
2022/03/25 09:22:31;;;;;;;29.43;20.07;;;12.00;99.40;;;;;;5091764;28;20200;-86
2022/03/25 09:24:58;;;;;;;25.87;19.27;;;12.10;99.30;;;;;;5091730;28;20261;-86
2022/03/25 09:27:24;;;;;;;28.57;19.20;;;12.30;99.40;;;;;;5109189;28;20182;-86
2022/03/25 09:29:50;;;;;;;29.40;19.77;;;12.50;98.90;;;;;;5091634;28;20181;-85
2022/03/25 09:32:16;;;;;;;28.30;19.93;;;12.60;98.50;;;;;;5108341;28;20206;-86
2022/03/25 09:37:27;;;;;;;28.33;19.17;;;12.90;98.20;;;;;;5074650;28;20185;-86
2022/03/25 09:39:53;;;;;;;30.77;20.17;;;13.10;97.30;;;;;;5091409;28;20187;-86
2022/03/25 09:42:19;;;;;;;27.63;19.23;;;13.20;96.70;;;;;;5058115;28;20203;-86
2022/03/25 09:44:46;;;;;;;32.23;20.97;;;13.20;96.80;;;;;;5090797;28;20169;-86
2022/03/25 09:47:14;;;;;;;29.23;20.10;;;13.40;96.30;;;;;;5091346;28;20194;-86
2022/03/25 09:49:41;;;;;;;25.43;19.03;;;13.50;96.10;;;;;;5091207;28;20179;-86
2022/03/25 09:52:07;;;;;;;30.23;20.40;;;13.70;96.50;;;;;;5092406;28;20191;-86
2022/03/25 09:54:34;;;;;;;29.73;20.57;;;13.90;95.40;;;;;;5091393;28;20207;-86
2022/03/25 09:57:01;;;;;;;33.23;20.40;;;14.00;93.20;;;;;;5091222;28;20177;-86
2022/03/25 09:59:27;;;;;;;32.93;21.30;;;14.20;93.00;;;;;;5090901;28;20231;-86
2022/03/25 10:01:53;;;;;;;35.93;21.00;;;14.20;93.20;;;;;;5074378;28;20197;-86
2022/03/25 10:04:37;;;;;;;31.23;20.03;;;14.40;93.70;;;;;;5091166;28;20212;-86
2022/03/25 10:07:17;;;;;;;31.97;21.40;;;14.60;93.30;;;;;;5057658;28;20188;-86
2022/03/25 10:09:44;;;;;;;29.97;21.40;;;14.70;91.40;;;;;;5090765;28;20184;-86
2022/03/25 10:12:21;;;;;;;29.73;20.67;;;14.70;91.30;;;;;;5090760;28;20283;-86
2022/03/25 10:14:49;;;;;;;31.03;21.60;;;14.80;91.80;;;;;;5108099;28;20180;-86
2022/03/25 10:17:15;;;;;;;29.63;20.47;;;15.00;91.70;;;;;;5090811;28;20189;-86
2022/03/25 10:19:54;;;;;;;29.47;20.47;;;15.20;92.40;;;;;;5090756;28;20181;-86
2022/03/25 10:22:20;;;;;;;31.17;20.43;;;15.30;91.40;;;;;;5073848;28;20224;-86
2022/03/25 10:24:48;;;;;;;30.20;21.73;;;15.50;91.00;;;;;;5073497;28;20208;-86
2022/03/25 10:27:23;;;;;;;29.47;21.03;;;15.50;90.50;;;;;;5073255;28;20229;-86
2022/03/25 10:29:54;;;;;;;29.83;20.83;;;15.50;90.90;;;;;;5053735;28;20219;-86
2022/03/25 10:32:25;;;;;;;30.60;20.73;;;15.60;91.50;;;;;;5074360;28;20184;-86
2022/03/25 10:35:09;;;;;;;30.97;20.73;;;15.80;91.00;;;;;;5057884;28;20200;-86
2022/03/25 10:37:38;;;;;;;32.00;20.17;;;16.00;91.70;;;;;;5072910;28;20192;-86
2022/03/25 10:40:08;;;;;;;33.07;21.43;;;16.20;91.20;;;;;;5090449;28;20185;-86
2022/03/25 10:42:34;;;;;;;29.63;21.27;;;16.30;90.30;;;;;;5090271;28;20604;-84
2022/03/25 10:45:00;;;;;;;29.73;20.47;;;16.40;89.70;;;;;;5090846;28;20196;-84
2022/03/25 10:47:28;;;;;;;28.63;20.40;;;16.50;89.50;;;;;;5090657;28;20176;-84
2022/03/25 10:49:56;;;;;;;28.80;20.90;;;16.60;88.90;;;;;;5090870;28;20188;-84
2022/03/25 10:52:25;;;;;;;26.90;19.37;;;16.70;86.80;;;;;;5090920;28;20269;-84
2022/03/25 10:55:11;;;;;;;30.10;21.07;;;17.00;85.70;;;;;;5090516;28;20200;-84
2022/03/25 10:57:58;;;;;;;29.53;20.17;;;17.10;84.30;;;;;;5091171;28;20221;-87
2022/03/25 11:00:26;;;;;;;32.00;21.93;;;17.40;84.70;;;;;;5107918;28;20184;-86
2022/03/25 11:02:53;;;;;;;30.33;19.13;;;17.60;82.10;;;;;;5090755;28;20206;-86
2022/03/25 11:05:19;;;;;;;28.85;19.30;;;17.60;80.30;;;;;;5108115;28;20173;-85
2022/03/25 11:07:47;;;;;;;23.50;19.02;;;17.80;80.00;;;;;;5090869;28;20192;-85
2022/03/25 11:10:17;;;;;;;24.92;18.20;;;17.90;79.00;;;;;;5090423;28;20204;-86
2022/03/25 11:12:47;;;;;;;24.45;18.65;;;18.10;77.80;;;;;;5090587;28;20228;-82
2022/03/25 11:15:14;;;;;;;23.70;18.98;;;18.20;78.00;;;;;;5091309;28;20278;-81
2022/03/25 11:17:41;;;;;;;23.17;17.13;;;18.40;79.00;;;;;;5074370;28;20210;-87
2022/03/25 11:20:10;;;;;;;26.13;19.20;;;18.50;74.70;;;;;;5090513;28;20193;-86
2022/03/25 11:23:11;;;;;;;26.67;18.67;;;18.60;76.90;;;;;;5073954;28;20219;-84
2022/03/25 11:25:51;;;;;;;24.95;18.38;;;18.70;77.70;;;;;;5012996;28;20236;-84
2022/03/25 11:28:20;;;;;;;25.58;18.83;;;18.90;77.30;;;;;;5089485;28;20176;-84
2022/03/25 11:30:58;;;;;;;22.50;17.38;;;19.00;78.70;;;;;;5054004;28;20208;-84
2022/03/25 11:33:24;;;;;;;22.83;18.27;;;19.10;78.20;;;;;;5071019;28;20215;-85
2022/03/25 11:36:11;;;;;;;23.75;17.90;;;19.30;77.10;;;;;;5057055;28;20208;-85
2022/03/25 11:38:41;;;;;;;25.05;18.00;;;19.50;75.40;;;;;;5053658;28;20543;-85
2022/03/25 11:41:23;;;;;;;23.05;18.10;;;19.50;72.70;;;;;;5056530;28;20173;-85
2022/03/25 11:44:18;;;;;;;23.55;17.90;;;19.50;71.80;;;;;;5056478;28;20207;-85
2022/03/25 11:47:04;;;;;;;19.98;15.98;;;19.70;71.30;;;;;;5077585;28;20183;-85
2022/03/25 11:49:32;;;;;;;21.60;17.70;;;19.80;72.10;;;;;;5057684;28;20181;-84
2022/03/25 11:52:30;;;;;;;19.98;17.27;;;20.00;70.90;;;;;;5073766;28;20224;-85
2022/03/25 11:54:58;;;;;;;20.65;16.00;;;19.90;64.50;;;;;;5074200;28;20180;-85
2022/03/25 11:57:31;;;;;;;23.27;18.17;;;20.00;68.50;;;;;;5060192;28;20185;-85
2022/03/25 11:59:59;;;;;;;21.58;16.65;;;20.00;67.60;;;;;;5076493;28;20238;-85
2022/03/25 12:02:36;;;;;;;22.75;16.98;;;20.10;68.70;;;;;;5060364;28;20193;-85
2022/03/25 12:05:06;;;;;;;23.38;16.67;;;20.10;66.30;;;;;;5074986;28;20169;-85
2022/03/25 12:07:32;;;;;;;22.80;16.30;;;20.20;66.30;;;;;;5082506;28;20212;-85
2022/03/25 12:09:58;;;;;;;20.75;16.35;;;20.30;66.70;;;;;;5093439;28;20176;-85
2022/03/25 12:12:53;;;;;;;22.42;18.17;;;20.40;66.40;;;;;;5075835;28;20193;-85
2022/03/25 12:15:20;;;;;;;26.15;18.77;;;20.50;64.70;;;;;;5056735;28;20204;-85
2022/03/25 12:17:46;;;;;;;19.85;16.63;;;20.50;64.10;;;;;;5076042;28;20172;-85
2022/03/25 12:20:12;;;;;;;23.08;18.00;;;20.60;65.00;;;;;;5059495;28;20180;-80
2022/03/25 12:22:39;;;;;;;24.10;19.08;;;20.70;65.20;;;;;;5077025;28;20196;-85
2022/03/25 12:25:14;;;;;;;21.48;17.38;;;20.70;63.20;;;;;;5060270;28;20180;-85
2022/03/25 12:27:42;;;;;;;23.70;18.23;;;20.80;66.40;;;;;;5078090;28;20197;-85
2022/03/25 12:30:08;;;;;;;24.00;18.80;;;20.80;62.70;;;;;;5078089;28;20241;-85
2022/03/25 12:32:36;;;;;;;22.38;18.70;;;20.80;61.70;;;;;;5060957;28;20245;-85
2022/03/25 12:35:13;;;;;;;22.50;18.73;;;20.70;63.50;;;;;;5077866;28;20160;-86
2022/03/25 12:37:58;;;;;;;26.42;18.08;;;20.90;66.30;;;;;;5077564;28;20213;-86
2022/03/25 12:40:23;;;;;;;21.98;18.00;;;21.10;64.50;;;;;;5094352;28;20165;-85
2022/03/25 12:43:01;;;;;;;23.48;18.20;;;21.30;65.30;;;;;;5111410;28;20205;-86
2022/03/25 12:45:28;;;;;;;21.30;17.65;;;21.40;64.10;;;;;;5094756;28;20176;-86
2022/03/25 12:47:55;;;;;;;20.77;17.75;;;21.30;64.30;;;;;;5111537;28;20177;-85